This is the latest recevied weather packets stored in our database for station/object CE3JSG-13. If no packets are shown the sender has not sent any weather packets the latest 10 day(s).
| Time | Temp. | Humidity | Pressure | Rain* | Wind** | Luminosity | Snow |
|---|---|---|---|---|---|---|---|
| 1777666037 | 19.44° C | 61% | 1018.9 hPa | - | - | - | - |
| 1777665616 | 18.33° C | 64% | 1020.8 hPa | - | - | - | - |
| 1777665195 | 18.89° C | 63% | 1020.3 hPa | - | - | - | - |
| 1777664776 | 18.89° C | 63% | 1019.9 hPa | - | - | - | - |
| 1777664355 | 18.89° C | 62% | 1019.2 hPa | - | - | - | - |
| 1777663935 | 18.33° C | 65% | 1019.5 hPa | - | - | - | - |
| 1777663516 | 17.78° C | 66% | 1021.1 hPa | - | - | - | - |
| 1777663095 | 18.33° C | 63% | 1020 hPa | - | - | - | - |
| 1777662676 | 18.33° C | 63% | 1021.1 hPa | - | - | - | - |
| 1777662257 | 18.89° C | 61% | 1020.8 hPa | - | - | - | - |
| 1777661835 | 19.44° C | 59% | 1018.4 hPa | - | - | - | - |
| 1777661415 | 18.89° C | 61% | 1019.2 hPa | - | - | - | - |
| 1777660995 | 18.33° C | 62% | 1020.3 hPa | - | - | - | - |
| 1777660576 | 18.89° C | 59% | 1018.6 hPa | - | - | - | - |
| 1777660156 | 18.33° C | 61% | 1022.4 hPa | - | - | - | - |
| 1777659735 | 20° C | 57% | 1017.2 hPa | - | - | - | - |
| 1777659316 | 18.89° C | 60% | 1020.3 hPa | - | - | - | - |
| 1777658895 | 19.44° C | 60% | 1018.4 hPa | - | - | - | - |
| 1777658475 | 18.89° C | 61% | 1018 hPa | - | - | - | - |
| 1777658056 | 17.78° C | 65% | 1024.6 hPa | - | - | - | - |
| 1777657636 | 20.56° C | 54% | 1014.9 hPa | - | - | - | - |
| 1777657215 | 17.78° C | 63% | 1019.7 hPa | - | - | - | - |
| 1777656795 | 17.78° C | 64% | 1023 hPa | - | - | - | - |
| 1777656375 | 20° C | 58% | 1017 hPa | - | - | - | - |
| 1777655956 | 18.33° C | 63% | 1019.9 hPa | - | - | - | - |
* Rain since midnight (hover to see other rain measurements)
** Current wind speed in m/s (hover to see current wind gust speed)